Time,TemperatureF,DewpointF,PressureIn,WindDirection,WindDirectionDegrees,WindSpeedMPH,WindSpeedGustMPH,Humidity,HourlyPrecipIn,Conditions,Clouds,dailyrainin,SoftwareType,DateUTC
2013-06-02 00:01:00,65.5,59.5,29.72,SSE,159,0.0,0.0,81,0.00,,---,0.00,VWS V14.01,2013-06-02 04:01:00,
2013-06-02 00:02:00,65.5,59.5,29.72,SSE,159,0.0,0.0,81,0.00,,---,0.00,VWS V14.01,2013-06-02 04:02:00,
2013-06-02 00:03:00,65.5,59.5,29.72,SSE,159,0.0,0.0,81,0.00,,---,0.00,VWS V14.01,2013-06-02 04:03:00,
2013-06-02 00:08:00,65.3,59.3,29.72,SSE,159,0.0,0.0,81,0.00,,---,0.00,VWS V14.01,2013-06-02 04:08:00,
2013-06-02 00:13:00,65.1,59.2,29.72,SSE,159,0.0,0.0,81,0.00,,---,0.00,VWS V14.01,2013-06-02 04:13:00,
2013-06-02 00:18:00,65.1,59.2,29.72,SSE,159,0.0,0.0,81,0.00,,---,0.00,VWS V14.01,2013-06-02 04:18:00,
2013-06-02 00:23:00,64.9,59.3,29.72,SSE,159,0.0,0.0,82,0.00,,---,0.00,VWS V14.01,2013-06-02 04:23:00,
2013-06-02 00:28:00,64.8,59.1,29.72,SSE,159,0.0,0.0,82,0.00,,---,0.00,VWS V14.01,2013-06-02 04:28:00,
2013-06-02 00:34:00,64.8,59.1,29.72,SSE,159,0.0,0.0,82,0.00,,---,0.00,VWS V14.01,2013-06-02 04:34:00,
2013-06-02 00:39:00,64.8,59.1,29.72,SSE,159,0.0,0.0,82,0.00,,---,0.00,VWS V14.01,2013-06-02 04:39:00,
2013-06-02 00:44:00,64.8,59.1,29.72,SSE,159,0.0,0.0,82,0.00,,---,0.00,VWS V14.01,2013-06-02 04:44:00,
2013-06-02 00:49:00,64.8,59.5,29.72,SSE,159,0.0,0.0,83,0.00,,---,0.00,VWS V14.01,2013-06-02 04:49:00,
2013-06-02 00:54:00,64.9,59.7,29.72,SSE,159,0.0,0.0,83,0.00,,---,0.00,VWS V14.01,2013-06-02 04:54:00,
2013-06-02 00:59:00,64.9,59.7,29.72,SSE,159,0.0,0.0,83,0.00,,---,0.24,VWS V14.01,2013-06-02 04:59:00,
2013-06-02 01:04:00,65.1,60.2,29.72,South,176,0.0,0.0,84,0.00,,---,0.00,VWS V14.01,2013-06-02 05:04:00,
2013-06-02 01:09:00,65.1,60.2,29.72,South,176,0.0,0.0,84,0.00,,---,0.00,VWS V14.01,2013-06-02 05:09:00,
2013-06-02 01:14:00,65.1,60.2,29.72,South,176,0.0,0.0,84,0.00,,---,0.00,VWS V14.01,2013-06-02 05:14:00,
2013-06-02 01:19:00,65.1,60.2,29.72,South,176,0.0,0.0,84,0.00,,---,0.00,VWS V14.01,2013-06-02 05:19:00,
2013-06-02 01:24:00,65.1,60.2,29.69,South,176,0.0,0.0,84,0.00,,---,0.00,VWS V14.01,2013-06-02 05:24:00,
2013-06-02 01:29:00,65.1,60.5,29.69,South,176,0.0,0.0,85,0.00,,---,0.00,VWS V14.01,2013-06-02 05:29:00,
2013-06-02 01:35:00,65.1,60.5,29.69,South,176,0.0,0.0,85,0.00,,---,0.00,VWS V14.01,2013-06-02 05:35:00,
2013-06-02 01:40:00,65.1,60.5,29.69,SSE,163,0.0,0.0,85,0.00,,---,0.00,VWS V14.01,2013-06-02 05:40:00,
2013-06-02 01:45:00,65.3,61.0,29.69,SSE,163,0.0,0.0,86,0.00,,---,0.00,VWS V14.01,2013-06-02 05:45:00,
2013-06-02 01:50:00,65.3,61.0,29.69,SE,124,0.0,0.0,86,0.00,,---,0.00,VWS V14.01,2013-06-02 05:50:00,
2013-06-02 01:55:00,65.5,61.2,29.69,South,175,0.0,0.0,86,0.00,,---,0.00,VWS V14.01,2013-06-02 05:55:00,
2013-06-02 02:00:00,65.7,61.7,29.69,SSE,161,0.0,0.0,87,0.00,,---,0.00,VWS V14.01,2013-06-02 06:00:00,
2013-06-02 02:05:00,65.7,61.7,29.69,SSE,168,0.0,0.0,87,0.00,,---,0.00,VWS V14.01,2013-06-02 06:05:00,
2013-06-02 02:10:00,65.8,61.9,29.69,SSE,154,0.0,0.0,87,0.00,,---,0.00,VWS V14.01,2013-06-02 06:10:00,
2013-06-02 02:15:00,65.8,61.9,29.69,SE,136,0.0,0.0,87,0.00,,---,0.00,VWS V14.01,2013-06-02 06:15:00,
2013-06-02 02:20:00,65.8,61.9,29.69,SE,127,0.0,0.0,87,0.00,,---,0.00,VWS V14.01,2013-06-02 06:20:00,
2013-06-02 02:25:00,65.8,61.9,29.69,South,185,0.0,0.0,87,0.00,,---,0.00,VWS V14.01,2013-06-02 06:25:00,
2013-06-02 02:30:00,66.0,62.4,29.69,SSE,154,5.4,7.2,88,0.00,,---,0.00,VWS V14.01,2013-06-02 06:30:00,
2013-06-02 02:35:00,66.0,62.4,29.69,South,171,6.3,6.3,88,0.00,,---,0.00,VWS V14.01,2013-06-02 06:35:00,
2013-06-02 02:41:00,66.0,62.4,29.66,South,172,5.4,5.4,88,0.00,,---,0.00,VWS V14.01,2013-06-02 06:41:00,
2013-06-02 02:46:00,66.2,62.5,29.66,SSE,151,4.5,6.3,88,0.00,,---,0.00,VWS V14.01,2013-06-02 06:46:00,
2013-06-02 02:51:00,66.2,62.5,29.66,WSW,253,7.2,7.2,88,0.00,,---,0.00,VWS V14.01,2013-06-02 06:51:00,
2013-06-02 02:56:00,66.4,62.7,29.69,SSW,212,5.4,7.2,88,0.00,,---,0.00,VWS V14.01,2013-06-02 06:56:00,
2013-06-02 03:01:00,66.6,62.9,29.69,SSE,150,7.2,9.8,88,0.00,,---,0.00,VWS V14.01,2013-06-02 07:01:00,
2013-06-02 03:06:00,66.7,63.4,29.69,SSE,167,7.2,10.7,89,0.00,,---,0.00,VWS V14.01,2013-06-02 07:06:00,
2013-06-02 03:11:00,66.9,63.6,29.69,West,273,5.4,7.2,89,0.00,,---,0.00,VWS V14.01,2013-06-02 07:11:00,
2013-06-02 03:16:00,66.9,63.6,29.69,SE,143,8.1,8.1,89,0.00,,---,0.00,VWS V14.01,2013-06-02 07:16:00,
2013-06-02 03:21:00,67.1,63.8,29.69,West,269,0.0,0.0,89,0.00,,---,0.00,VWS V14.01,2013-06-02 07:21:00,
2013-06-02 03:26:00,67.1,63.8,29.69,SSE,156,0.0,0.0,89,0.00,,---,0.00,VWS V14.01,2013-06-02 07:26:00,
2013-06-02 03:31:00,67.1,63.4,29.69,South,170,5.4,8.1,88,0.00,,---,0.00,VWS V14.01,2013-06-02 07:31:00,
2013-06-02 03:37:00,67.1,63.4,29.69,West,280,0.0,6.3,88,0.00,,---,0.00,VWS V14.01,2013-06-02 07:37:00,
2013-06-02 03:42:00,67.1,63.4,29.69,SSE,153,0.0,0.0,88,0.00,,---,0.00,VWS V14.01,2013-06-02 07:42:00,
2013-06-02 03:47:00,66.9,63.3,29.69,SSW,209,5.4,6.3,88,0.00,,---,0.00,VWS V14.01,2013-06-02 07:47:00,
2013-06-02 03:52:00,66.9,63.3,29.69,SW,225,0.0,4.5,88,0.00,,---,0.00,VWS V14.01,2013-06-02 07:52:00,
2013-06-02 03:57:00,66.9,63.3,29.69,SSE,162,7.2,8.1,88,0.00,,---,0.00,VWS V14.01,2013-06-02 07:57:00,
2013-06-02 04:02:00,66.9,63.6,29.69,SE,139,7.2,7.2,89,0.00,,---,0.00,VWS V14.01,2013-06-02 08:02:00,
2013-06-02 04:07:00,66.7,63.4,29.69,NW,323,5.4,5.4,89,0.00,,---,0.00,VWS V14.01,2013-06-02 08:07:00,
2013-06-02 04:12:00,66.7,63.4,29.69,West,264,0.0,0.0,89,0.00,,---,0.00,VWS V14.01,2013-06-02 08:12:00,
2013-06-02 04:17:00,66.7,63.4,29.69,WNW,283,0.0,0.0,89,0.00,,---,0.00,VWS V14.01,2013-06-02 08:17:00,
2013-06-02 04:22:00,66.6,62.9,29.69,WNW,288,0.0,0.0,88,0.00,,---,0.00,VWS V14.01,2013-06-02 08:22:00,
2013-06-02 04:28:00,66.2,62.5,29.69,West,279,0.0,0.0,88,0.00,,---,0.00,VWS V14.01,2013-06-02 08:28:00,
2013-06-02 04:33:00,66.0,62.4,29.69,West,272,0.0,0.0,88,0.00,,---,0.00,VWS V14.01,2013-06-02 08:33:00,
2013-06-02 04:38:00,65.8,62.2,29.69,WNW,292,7.2,7.2,88,0.00,,---,0.00,VWS V14.01,2013-06-02 08:38:00,
2013-06-02 04:43:00,65.7,62.0,29.69,West,280,0.0,0.0,88,0.00,,---,0.00,VWS V14.01,2013-06-02 08:43:00,
2013-06-02 04:48:00,65.5,61.8,29.69,West,280,0.0,0.0,88,0.00,,---,0.00,VWS V14.01,2013-06-02 08:48:00,
2013-06-02 04:53:00,65.3,61.7,29.69,West,279,0.0,0.0,88,0.00,,---,0.00,VWS V14.01,2013-06-02 08:53:00,
2013-06-02 04:58:00,65.1,61.5,29.69,West,278,0.0,0.0,88,0.00,,---,0.00,VWS V14.01,2013-06-02 08:58:00,
2013-06-02 05:03:00,64.9,61.3,29.69,WNW,289,0.0,0.0,88,0.00,,---,0.00,VWS V14.01,2013-06-02 09:03:00,
2013-06-02 05:08:00,64.8,61.1,29.69,WSW,257,0.0,0.0,88,0.00,,---,0.00,VWS V14.01,2013-06-02 09:08:00,
2013-06-02 05:13:00,64.8,61.1,29.69,WSW,242,0.0,0.0,88,0.00,,---,0.00,VWS V14.01,2013-06-02 09:13:00,
2013-06-02 05:18:00,64.8,61.1,29.69,WNW,287,0.0,0.0,88,0.00,,---,0.00,VWS V14.01,2013-06-02 09:18:00,
2013-06-02 05:23:00,64.6,61.0,29.69,WSW,245,0.0,0.0,88,0.00,,---,0.00,VWS V14.01,2013-06-02 09:23:00,
2013-06-02 05:28:00,64.6,61.0,29.69,WSW,245,0.0,0.0,88,0.00,,---,0.00,VWS V14.01,2013-06-02 09:28:00,
2013-06-02 05:33:00,64.4,60.8,29.69,SSW,206,6.3,6.3,88,0.00,,---,0.00,VWS V14.01,2013-06-02 09:33:00,
2013-06-02 05:38:00,64.2,60.6,29.69,SSE,154,6.3,6.3,88,0.00,,---,0.00,VWS V14.01,2013-06-02 09:38:00,
2013-06-02 05:44:00,64.0,60.4,29.69,SSW,198,0.0,0.0,88,0.00,,---,0.00,VWS V14.01,2013-06-02 09:44:00,
2013-06-02 05:49:00,64.0,60.4,29.69,SW,226,0.0,7.2,88,0.00,,---,0.00,VWS V14.01,2013-06-02 09:49:00,
2013-06-02 05:54:00,63.9,60.2,29.69,East,98,5.4,7.2,88,0.00,,---,0.00,VWS V14.01,2013-06-02 09:54:00,
2013-06-02 05:59:00,63.7,59.7,29.69,WSW,255,4.5,7.2,87,0.00,,---,0.00,VWS V14.01,2013-06-02 09:59:00,
2013-06-02 06:04:00,63.7,59.7,29.69,NNE,33,4.5,6.3,87,0.00,,---,0.00,VWS V14.01,2013-06-02 10:04:00,
2013-06-02 06:09:00,63.5,59.6,29.72,South,172,6.3,6.3,87,0.00,,---,0.00,VWS V14.01,2013-06-02 10:09:00,
2013-06-02 06:14:00,63.5,59.6,29.72,West,269,8.1,8.1,87,0.00,,---,0.00,VWS V14.01,2013-06-02 10:14:00,
2013-06-02 06:19:00,63.5,59.6,29.72,SSE,164,0.0,6.3,87,0.00,,---,0.00,VWS V14.01,2013-06-02 10:19:00,
2013-06-02 06:24:00,63.5,59.6,29.72,SE,146,6.3,6.3,87,0.00,,---,0.00,VWS V14.01,2013-06-02 10:24:00,
2013-06-02 06:29:00,63.5,59.2,29.72,ESE,122,0.0,6.3,86,0.00,,---,0.00,VWS V14.01,2013-06-02 10:29:00,
2013-06-02 06:35:00,63.5,59.2,29.72,SW,234,8.1,8.1,86,0.00,,---,0.00,VWS V14.01,2013-06-02 10:35:00,
2013-06-02 06:40:00,63.5,59.2,29.72,NNE,14,0.0,9.8,86,0.00,,---,0.00,VWS V14.01,2013-06-02 10:40:00,
2013-06-02 06:45:00,63.3,59.1,29.72,SW,232,0.0,4.5,86,0.00,,---,0.00,VWS V14.01,2013-06-02 10:45:00,
2013-06-02 06:50:00,63.3,59.1,29.72,WSW,245,10.7,13.4,86,0.00,,---,0.00,VWS V14.01,2013-06-02 10:50:00,
2013-06-02 06:55:00,63.3,58.7,29.72,WSW,241,7.2,9.8,85,0.00,,---,0.00,VWS V14.01,2013-06-02 10:55:00,
2013-06-02 07:00:00,63.3,58.7,29.72,SW,234,0.0,0.0,85,0.00,,---,0.00,VWS V14.01,2013-06-02 11:00:00,
2013-06-02 07:05:00,63.5,58.9,29.72,NNE,14,0.0,5.4,85,0.00,,---,0.00,VWS V14.01,2013-06-02 11:05:00,
2013-06-02 07:10:00,63.5,58.6,29.72,SSE,157,11.6,11.6,84,0.00,,---,0.00,VWS V14.01,2013-06-02 11:10:00,
2013-06-02 07:15:00,63.5,58.6,29.72,NW,304,8.1,8.1,84,0.00,,---,0.00,VWS V14.01,2013-06-02 11:15:00,
2013-06-02 07:20:00,63.5,58.6,29.72,WNW,287,5.4,6.3,84,0.00,,---,0.00,VWS V14.01,2013-06-02 11:20:00,
2013-06-02 07:25:00,63.7,58.4,29.72,NW,314,9.8,10.7,83,0.00,,---,0.00,VWS V14.01,2013-06-02 11:25:00,
2013-06-02 07:31:00,63.7,58.4,29.72,SW,235,7.2,7.2,83,0.00,,---,0.00,VWS V14.01,2013-06-02 11:31:00,
2013-06-02 07:36:00,63.7,58.4,29.72,NW,315,5.4,21.9,83,0.00,,---,0.00,VWS V14.01,2013-06-02 11:36:00,
2013-06-02 07:41:00,63.9,58.6,29.72,South,182,10.7,10.7,83,0.00,,---,0.00,VWS V14.01,2013-06-02 11:41:00,
2013-06-02 07:46:00,64.0,58.8,29.72,ESE,111,7.2,8.9,83,0.00,,---,0.00,VWS V14.01,2013-06-02 11:46:00,
2013-06-02 07:51:00,64.2,58.6,29.72,SSE,147,7.2,7.2,82,0.00,,---,0.00,VWS V14.01,2013-06-02 11:51:00,
2013-06-02 07:56:00,64.2,58.6,29.75,SW,224,5.4,12.5,82,0.00,,---,0.00,VWS V14.01,2013-06-02 11:56:00,
2013-06-02 08:01:00,64.4,58.1,29.75,SW,232,6.3,12.5,80,0.00,,---,0.00,VWS V14.01,2013-06-02 12:01:00,
2013-06-02 08:06:00,64.6,58.3,29.75,WNW,285,5.4,17.4,80,0.00,,---,0.00,VWS V14.01,2013-06-02 12:06:00,
2013-06-02 08:11:00,64.8,58.5,29.75,South,191,15.2,15.2,80,0.00,,---,0.00,VWS V14.01,2013-06-02 12:11:00,
2013-06-02 08:16:00,64.8,57.8,29.75,SSE,148,4.5,17.4,78,0.00,,---,0.00,VWS V14.01,2013-06-02 12:16:00,
2013-06-02 08:21:00,64.6,57.2,29.75,SSW,192,7.2,8.1,77,0.00,,---,0.00,VWS V14.01,2013-06-02 12:21:00,
2013-06-02 08:26:00,64.4,56.7,29.75,WNW,296,9.8,9.8,76,0.00,,---,0.00,VWS V14.01,2013-06-02 12:26:00,
2013-06-02 08:31:00,64.4,57.0,29.75,West,275,7.2,7.2,77,0.00,,---,0.00,VWS V14.01,2013-06-02 12:31:00,
2013-06-02 08:36:00,64.4,57.0,29.75,East,82,8.1,8.1,77,0.00,,---,0.00,VWS V14.01,2013-06-02 12:36:00,
2013-06-02 08:41:00,64.6,57.6,29.75,NW,314,6.3,6.3,78,0.00,,---,0.00,VWS V14.01,2013-06-02 12:41:00,
2013-06-02 08:46:00,64.6,57.2,29.75,NW,304,12.5,12.5,77,0.00,,---,0.00,VWS V14.01,2013-06-02 12:46:00,
2013-06-02 08:51:00,64.6,57.2,29.75,West,273,6.3,8.1,77,0.00,,---,0.00,VWS V14.01,2013-06-02 12:51:00,
2013-06-02 08:57:00,64.4,56.7,29.75,West,281,12.5,12.5,76,0.00,,---,0.00,VWS V14.01,2013-06-02 12:57:00,
2013-06-02 09:02:00,64.6,56.8,29.75,WSW,248,7.2,8.1,76,0.00,,---,0.00,VWS V14.01,2013-06-02 13:02:00,
2013-06-02 09:07:00,64.8,56.7,29.75,North,360,8.1,15.2,75,0.00,,---,0.00,VWS V14.01,2013-06-02 13:07:00,
2013-06-02 09:12:00,64.8,57.0,29.75,West,274,11.6,11.6,76,0.00,,---,0.00,VWS V14.01,2013-06-02 13:12:00,
2013-06-02 09:17:00,64.9,56.5,29.75,WNW,286,10.7,10.7,74,0.00,,---,0.00,VWS V14.01,2013-06-02 13:17:00,
2013-06-02 09:22:00,65.1,57.0,29.75,SW,220,11.6,11.6,75,0.00,,---,0.00,VWS V14.01,2013-06-02 13:22:00,
2013-06-02 09:27:00,65.1,57.4,29.75,SW,228,12.5,13.4,76,0.00,,---,0.00,VWS V14.01,2013-06-02 13:27:00,
2013-06-02 09:32:00,65.5,57.7,29.75,SW,222,5.4,7.2,76,0.00,,---,0.00,VWS V14.01,2013-06-02 13:32:00,
2013-06-02 09:37:00,65.7,57.2,29.75,West,264,12.5,12.5,74,0.00,,---,0.00,VWS V14.01,2013-06-02 13:37:00,
2013-06-02 09:42:00,65.8,57.7,29.75,NW,311,4.5,9.8,75,0.00,,---,0.00,VWS V14.01,2013-06-02 13:42:00,
2013-06-02 09:47:00,66.0,57.1,29.75,SW,218,11.6,19.2,73,0.00,,---,0.00,VWS V14.01,2013-06-02 13:47:00,
2013-06-02 09:52:00,66.2,56.5,29.75,SSW,211,7.2,11.6,71,0.00,,---,0.00,VWS V14.01,2013-06-02 13:52:00,
2013-06-02 09:57:00,66.4,57.1,29.75,North,354,6.3,6.3,72,0.00,,---,0.00,VWS V14.01,2013-06-02 13:57:00,
2013-06-02 10:02:00,66.7,57.0,29.75,NE,38,6.3,16.6,71,0.00,,---,0.00,VWS V14.01,2013-06-02 14:02:00,
2013-06-02 10:07:00,66.7,57.0,29.75,WNW,286,6.3,7.2,71,0.00,,---,0.00,VWS V14.01,2013-06-02 14:07:00,
2013-06-02 10:12:00,66.9,56.8,29.75,SW,231,8.1,8.1,70,0.00,,---,0.00,VWS V14.01,2013-06-02 14:12:00,
2013-06-02 10:17:00,67.1,56.6,29.75,WNW,286,10.7,11.6,69,0.00,,---,0.00,VWS V14.01,2013-06-02 14:17:00,
2013-06-02 10:22:00,67.3,56.4,29.75,NNE,18,11.6,11.6,68,0.00,,---,0.00,VWS V14.01,2013-06-02 14:22:00,
2013-06-02 10:27:00,67.6,56.7,29.78,West,269,7.2,7.2,68,0.00,,---,0.00,VWS V14.01,2013-06-02 14:27:00,
2013-06-02 10:32:00,67.8,56.5,29.78,SW,221,8.9,9.8,67,0.00,,---,0.00,VWS V14.01,2013-06-02 14:32:00,
2013-06-02 10:37:00,67.6,55.9,29.78,WNW,294,8.1,11.6,66,0.00,,---,0.00,VWS V14.01,2013-06-02 14:37:00,
2013-06-02 10:42:00,67.6,56.3,29.78,NW,320,16.6,16.6,67,0.00,,---,0.00,VWS V14.01,2013-06-02 14:42:00,
2013-06-02 10:48:00,67.8,56.5,29.78,SW,227,5.4,7.2,67,0.00,,---,0.00,VWS V14.01,2013-06-02 14:48:00,
2013-06-02 10:53:00,67.6,55.5,29.78,WNW,287,16.1,16.1,65,0.00,,---,0.00,VWS V14.01,2013-06-02 14:53:00,
2013-06-02 10:58:00,67.6,55.5,29.78,WNW,301,6.3,9.8,65,0.00,,---,0.00,VWS V14.01,2013-06-02 14:58:00,
2013-06-02 11:03:00,67.8,56.5,29.78,WNW,298,11.6,12.5,67,0.00,,---,0.00,VWS V14.01,2013-06-02 15:03:00,
2013-06-02 11:08:00,68.4,55.7,29.78,NNW,337,7.2,7.2,64,0.00,,---,0.00,VWS V14.01,2013-06-02 15:08:00,
2013-06-02 11:13:00,68.4,55.7,29.78,NW,306,7.2,10.7,64,0.00,,---,0.00,VWS V14.01,2013-06-02 15:13:00,
2013-06-02 11:18:00,68.2,55.5,29.78,SW,227,10.7,16.1,64,0.00,,---,0.00,VWS V14.01,2013-06-02 15:18:00,
2013-06-02 11:23:00,67.8,55.2,29.78,WSW,242,6.3,11.6,64,0.00,,---,0.00,VWS V14.01,2013-06-02 15:23:00,
2013-06-02 11:28:00,67.5,54.9,29.78,NNW,329,9.8,9.8,64,0.00,,---,0.00,VWS V14.01,2013-06-02 15:28:00,
2013-06-02 11:33:00,67.3,55.1,29.78,SW,226,8.1,11.6,65,0.00,,---,0.00,VWS V14.01,2013-06-02 15:33:00,
2013-06-02 11:38:00,67.1,55.0,29.78,WSW,243,6.3,7.2,65,0.00,,---,0.00,VWS V14.01,2013-06-02 15:38:00,
2013-06-02 11:44:00,67.1,55.4,29.78,WNW,301,6.3,12.5,66,0.00,,---,0.00,VWS V14.01,2013-06-02 15:44:00,
2013-06-02 11:49:00,67.3,55.5,29.78,NW,316,8.1,10.7,66,0.00,,---,0.00,VWS V14.01,2013-06-02 15:49:00,
2013-06-02 11:54:00,67.8,56.5,29.81,NNW,337,8.1,8.1,67,0.00,,---,0.00,VWS V14.01,2013-06-02 15:54:00,
2013-06-02 11:59:00,68.0,56.2,29.81,West,274,5.4,7.2,66,0.00,,---,0.00,VWS V14.01,2013-06-02 15:59:00,
2013-06-02 12:04:00,68.2,56.0,29.81,NNW,338,10.7,10.7,65,0.00,,---,0.00,VWS V14.01,2013-06-02 16:04:00,
2013-06-02 12:09:00,68.2,56.0,29.81,NW,318,6.3,8.1,65,0.00,,---,0.00,VWS V14.01,2013-06-02 16:09:00,
2013-06-02 12:14:00,68.7,56.5,29.81,WNW,302,7.2,7.2,65,0.00,,---,0.00,VWS V14.01,2013-06-02 16:14:00,
2013-06-02 12:19:00,69.3,56.6,29.81,WSW,238,6.3,6.3,64,0.00,,---,0.00,VWS V14.01,2013-06-02 16:19:00,
2013-06-02 12:24:00,69.3,55.2,29.81,SSW,203,10.7,10.7,61,0.00,,---,0.00,VWS V14.01,2013-06-02 16:24:00,
2013-06-02 12:29:00,69.1,54.2,29.81,North,355,6.3,12.5,59,0.00,,---,0.00,VWS V14.01,2013-06-02 16:29:00,
2013-06-02 12:34:00,68.9,54.5,29.81,West,274,8.1,11.6,60,0.00,,---,0.00,VWS V14.01,2013-06-02 16:34:00,
2013-06-02 12:39:00,68.7,54.3,29.81,NNW,345,15.2,21.0,60,0.00,,---,0.00,VWS V14.01,2013-06-02 16:39:00,
2013-06-02 12:44:00,68.9,54.9,29.81,WSW,257,16.6,16.6,61,0.00,,---,0.00,VWS V14.01,2013-06-02 16:44:00,
2013-06-02 12:50:00,68.9,54.5,29.81,NW,322,6.3,7.2,60,0.00,,---,0.00,VWS V14.01,2013-06-02 16:50:00,
2013-06-02 12:55:00,68.9,54.5,29.81,SSE,153,10.7,14.3,60,0.00,,---,0.00,VWS V14.01,2013-06-02 16:55:00,
2013-06-02 13:00:00,68.9,53.5,29.81,West,261,8.1,20.1,58,0.00,,---,0.00,VWS V14.01,2013-06-02 17:00:00,
2013-06-02 13:05:00,68.5,54.1,29.81,WSW,251,6.3,11.6,60,0.00,,---,0.00,VWS V14.01,2013-06-02 17:05:00,
2013-06-02 13:10:00,68.5,54.6,29.81,SW,233,5.4,5.4,61,0.00,,---,0.00,VWS V14.01,2013-06-02 17:10:00,
2013-06-02 13:15:00,68.2,54.2,29.81,NNW,330,8.1,10.7,61,0.00,,---,0.00,VWS V14.01,2013-06-02 17:15:00,
2013-06-02 13:20:00,68.0,54.1,29.81,NW,306,11.6,11.6,61,0.00,,---,0.00,VWS V14.01,2013-06-02 17:20:00,
2013-06-02 13:25:00,68.0,54.5,29.84,SW,227,5.4,9.8,62,0.00,,---,0.00,VWS V14.01,2013-06-02 17:25:00,
2013-06-02 13:30:00,68.5,55.0,29.84,NW,309,10.7,12.5,62,0.00,,---,0.00,VWS V14.01,2013-06-02 17:30:00,
2013-06-02 13:35:00,68.9,54.0,29.84,NNW,343,8.9,8.9,59,0.00,,---,0.00,VWS V14.01,2013-06-02 17:35:00,
2013-06-02 13:40:00,68.7,53.4,29.84,NW,315,11.6,11.6,58,0.00,,---,0.00,VWS V14.01,2013-06-02 17:40:00,
2013-06-02 13:46:00,68.4,53.0,29.84,WNW,299,4.5,9.8,58,0.00,,---,0.00,VWS V14.01,2013-06-02 17:46:00,
2013-06-02 13:51:00,67.8,53.0,29.84,North,353,4.5,15.2,59,0.00,,---,0.00,VWS V14.01,2013-06-02 17:51:00,
2013-06-02 13:56:00,67.6,53.7,29.84,North,358,0.0,6.3,61,0.00,,---,0.00,VWS V14.01,2013-06-02 17:56:00,
2013-06-02 14:01:00,67.6,53.3,29.84,WSW,245,7.2,8.1,60,0.00,,---,0.00,VWS V14.01,2013-06-02 18:01:00,
2013-06-02 14:06:00,67.3,53.4,29.84,WNW,289,8.1,8.1,61,0.00,,---,0.00,VWS V14.01,2013-06-02 18:06:00,
2013-06-02 14:11:00,67.6,54.2,29.84,NW,311,11.6,16.1,62,0.00,,---,0.00,VWS V14.01,2013-06-02 18:11:00,
2013-06-02 14:16:00,67.8,53.4,29.84,WNW,297,6.3,6.3,60,0.00,,---,0.00,VWS V14.01,2013-06-02 18:16:00,
2013-06-02 14:21:00,68.4,54.0,29.84,SE,129,0.0,15.2,60,0.00,,---,0.00,VWS V14.01,2013-06-02 18:21:00,
2013-06-02 14:26:00,68.5,53.7,29.84,NNW,327,5.4,5.4,59,0.00,,---,0.00,VWS V14.01,2013-06-02 18:26:00,
2013-06-02 14:31:00,68.7,53.4,29.84,South,170,6.3,6.3,58,0.00,,---,0.00,VWS V14.01,2013-06-02 18:31:00,
2013-06-02 14:36:00,68.7,51.9,29.84,NW,315,7.2,12.5,55,0.00,,---,0.00,VWS V14.01,2013-06-02 18:36:00,
2013-06-02 14:41:00,68.7,51.9,29.84,NNW,337,8.9,12.5,55,0.00,,---,0.00,VWS V14.01,2013-06-02 18:41:00,
2013-06-02 14:46:00,68.7,51.9,29.84,West,266,6.3,10.7,55,0.00,,---,0.00,VWS V14.01,2013-06-02 18:46:00,
2013-06-02 14:51:00,68.5,51.8,29.84,NW,318,6.3,6.3,55,0.00,,---,0.00,VWS V14.01,2013-06-02 18:51:00,
2013-06-02 14:57:00,68.5,52.2,29.87,North,3,6.3,12.5,56,0.00,,---,0.00,VWS V14.01,2013-06-02 18:57:00,
2013-06-02 15:02:00,68.4,52.1,29.87,NNW,327,4.5,16.6,56,0.00,,---,0.00,VWS V14.01,2013-06-02 19:02:00,
2013-06-02 15:07:00,68.5,52.7,29.87,SSE,166,7.2,11.6,57,0.00,,---,0.00,VWS V14.01,2013-06-02 19:07:00,
2013-06-02 15:12:00,68.7,51.9,29.87,NNW,334,4.5,11.6,55,0.00,,---,0.00,VWS V14.01,2013-06-02 19:12:00,
2013-06-02 15:17:00,68.4,51.6,29.87,NW,313,15.2,15.2,55,0.00,,---,0.00,VWS V14.01,2013-06-02 19:17:00,
2013-06-02 15:22:00,68.0,52.2,29.87,SSW,198,10.7,13.4,57,0.00,,---,0.00,VWS V14.01,2013-06-02 19:22:00,
2013-06-02 15:27:00,67.8,51.6,29.87,NE,45,6.3,6.3,56,0.00,,---,0.00,VWS V14.01,2013-06-02 19:27:00,
2013-06-02 15:32:00,67.5,51.2,29.87,WNW,299,6.3,7.2,56,0.00,,---,0.00,VWS V14.01,2013-06-02 19:32:00,
2013-06-02 15:37:00,67.6,52.3,29.87,NW,323,10.7,10.7,58,0.00,,---,0.00,VWS V14.01,2013-06-02 19:37:00,
2013-06-02 15:42:00,67.8,52.5,29.87,WNW,288,7.2,7.2,58,0.00,,---,0.00,VWS V14.01,2013-06-02 19:42:00,
2013-06-02 15:47:00,67.8,52.0,29.87,NW,321,11.6,11.6,57,0.00,,---,0.00,VWS V14.01,2013-06-02 19:47:00,
2013-06-02 15:52:00,67.8,52.5,29.87,NNW,335,6.3,9.8,58,0.00,,---,0.00,VWS V14.01,2013-06-02 19:52:00,
2013-06-02 15:57:00,67.6,51.9,29.87,NW,319,16.6,16.6,57,0.00,,---,0.00,VWS V14.01,2013-06-02 19:57:00,
2013-06-02 16:02:00,67.5,51.2,29.87,West,277,4.5,10.7,56,0.00,,---,0.00,VWS V14.01,2013-06-02 20:02:00,
2013-06-02 16:08:00,67.1,50.9,29.87,West,263,8.1,8.1,56,0.00,,---,0.00,VWS V14.01,2013-06-02 20:08:00,
2013-06-02 16:13:00,67.1,51.4,29.87,WSW,256,4.5,9.8,57,0.00,,---,0.00,VWS V14.01,2013-06-02 20:13:00,
2013-06-02 16:18:00,67.1,51.8,29.87,NW,308,13.4,13.4,58,0.00,,---,0.00,VWS V14.01,2013-06-02 20:18:00,
2013-06-02 16:23:00,67.6,51.9,29.87,NW,322,8.1,14.3,57,0.00,,---,0.00,VWS V14.01,2013-06-02 20:23:00,
2013-06-02 16:28:00,67.6,51.4,29.87,NW,320,11.6,11.6,56,0.00,,---,0.00,VWS V14.01,2013-06-02 20:28:00,
2013-06-02 16:33:00,67.8,51.6,29.87,WNW,303,0.0,13.4,56,0.00,,---,0.00,VWS V14.01,2013-06-02 20:33:00,
2013-06-02 16:38:00,68.2,51.4,29.87,NW,326,0.0,5.4,55,0.00,,---,0.00,VWS V14.01,2013-06-02 20:38:00,
2013-06-02 16:43:00,68.2,50.9,29.87,WNW,297,6.3,6.3,54,0.00,,---,0.00,VWS V14.01,2013-06-02 20:43:00,
2013-06-02 16:48:00,68.2,50.9,29.87,NNE,21,15.2,15.2,54,0.00,,---,0.00,VWS V14.01,2013-06-02 20:48:00,
2013-06-02 16:53:00,68.2,50.9,29.87,South,174,11.6,11.6,54,0.00,,---,0.00,VWS V14.01,2013-06-02 20:53:00,
2013-06-02 16:58:00,68.0,50.2,29.87,WNW,285,8.1,8.1,53,0.00,,---,0.00,VWS V14.01,2013-06-02 20:58:00,
2013-06-02 17:03:00,67.6,49.4,29.87,NNW,328,8.1,8.1,52,0.00,,---,0.00,VWS V14.01,2013-06-02 21:03:00,
2013-06-02 17:08:00,67.5,49.8,29.90,NW,313,5.4,6.3,53,0.00,,---,0.00,VWS V14.01,2013-06-02 21:08:00,
2013-06-02 17:13:00,67.5,49.8,29.90,East,89,5.4,15.2,53,0.00,,---,0.00,VWS V14.01,2013-06-02 21:13:00,
2013-06-02 17:19:00,67.5,49.8,29.90,NW,321,6.3,10.7,53,0.00,,---,0.00,VWS V14.01,2013-06-02 21:19:00,
2013-06-02 17:24:00,66.9,48.7,29.90,NW,318,6.3,15.2,52,0.00,,---,0.00,VWS V14.01,2013-06-02 21:24:00,
2013-06-02 17:29:00,66.4,48.2,29.90,NNW,334,7.2,20.1,52,0.00,,---,0.00,VWS V14.01,2013-06-02 21:29:00,
2013-06-02 17:34:00,65.7,48.1,29.90,NNW,327,8.1,8.1,53,0.00,,---,0.00,VWS V14.01,2013-06-02 21:34:00,
2013-06-02 17:39:00,65.5,48.9,29.90,West,280,12.5,12.5,55,0.00,,---,0.00,VWS V14.01,2013-06-02 21:39:00,
2013-06-02 17:44:00,65.3,48.7,29.90,ENE,72,12.5,12.5,55,0.00,,---,0.00,VWS V14.01,2013-06-02 21:44:00,
2013-06-02 17:49:00,64.9,48.9,29.90,NW,320,16.1,16.1,56,0.00,,---,0.00,VWS V14.01,2013-06-02 21:49:00,
2013-06-02 17:54:00,64.6,48.5,29.90,WNW,297,7.2,24.6,56,0.00,,---,0.00,VWS V14.01,2013-06-02 21:54:00,
2013-06-02 17:59:00,64.0,48.5,29.90,NW,305,17.4,17.4,57,0.00,,---,0.00,VWS V14.01,2013-06-02 21:59:00,
2013-06-02 18:04:00,63.9,48.8,29.90,NNW,336,12.5,15.2,58,0.00,,---,0.00,VWS V14.01,2013-06-02 22:04:00,
2013-06-02 18:10:00,63.9,48.8,29.90,NNW,337,8.1,9.8,58,0.00,,---,0.00,VWS V14.01,2013-06-02 22:10:00,
2013-06-02 18:15:00,63.7,48.6,29.90,WNW,299,12.5,20.1,58,0.00,,---,0.00,VWS V14.01,2013-06-02 22:15:00,
2013-06-02 18:20:00,63.3,47.8,29.90,NW,320,5.4,6.3,57,0.00,,---,0.00,VWS V14.01,2013-06-02 22:20:00,
2013-06-02 18:25:00,63.1,48.1,29.90,WNW,287,10.7,12.5,58,0.00,,---,0.00,VWS V14.01,2013-06-02 22:25:00,
2013-06-02 18:30:00,63.1,48.6,29.90,North,10,6.3,10.7,59,0.00,,---,0.00,VWS V14.01,2013-06-02 22:30:00,
2013-06-02 18:35:00,63.3,48.8,29.90,West,279,12.5,12.5,59,0.00,,---,0.00,VWS V14.01,2013-06-02 22:35:00,
2013-06-02 18:40:00,63.1,48.6,29.90,NW,315,20.1,20.1,59,0.00,,---,0.00,VWS V14.01,2013-06-02 22:40:00,
2013-06-02 18:45:00,62.6,47.6,29.90,West,267,7.2,7.2,58,0.00,,---,0.00,VWS V14.01,2013-06-02 22:45:00,
2013-06-02 18:50:00,62.2,47.3,29.90,SW,227,10.7,10.7,58,0.00,,---,0.00,VWS V14.01,2013-06-02 22:50:00,
2013-06-02 18:55:00,62.1,48.0,29.90,WNW,295,11.6,11.6,60,0.00,,---,0.00,VWS V14.01,2013-06-02 22:55:00,
2013-06-02 19:01:00,61.7,47.7,29.90,NNW,342,10.7,16.6,60,0.00,,---,0.00,VWS V14.01,2013-06-02 23:01:00,
2013-06-02 19:06:00,61.3,47.8,29.90,WNW,298,12.5,17.4,61,0.00,,---,0.00,VWS V14.01,2013-06-02 23:06:00,
2013-06-02 19:11:00,61.2,47.6,29.90,NW,320,6.3,12.5,61,0.00,,---,0.00,VWS V14.01,2013-06-02 23:11:00,
2013-06-02 19:16:00,60.8,47.7,29.90,WNW,301,8.1,8.1,62,0.00,,---,0.00,VWS V14.01,2013-06-02 23:16:00,
2013-06-02 19:21:00,60.6,47.5,29.90,NW,317,12.5,12.5,62,0.00,,---,0.00,VWS V14.01,2013-06-02 23:21:00,
2013-06-02 19:26:00,60.3,47.2,29.93,NW,311,8.1,12.5,62,0.00,,---,0.00,VWS V14.01,2013-06-02 23:26:00,
2013-06-02 19:31:00,60.1,47.5,29.93,North,3,7.2,9.8,63,0.00,,---,0.00,VWS V14.01,2013-06-02 23:31:00,
2013-06-02 19:36:00,60.1,47.5,29.93,NW,312,9.8,9.8,63,0.00,,---,0.00,VWS V14.01,2013-06-02 23:36:00,
2013-06-02 19:41:00,59.9,47.3,29.93,NW,318,12.5,12.5,63,0.00,,---,0.00,VWS V14.01,2013-06-02 23:41:00,
2013-06-02 19:46:00,59.7,47.1,29.93,WNW,303,0.0,5.4,63,0.00,,---,0.00,VWS V14.01,2013-06-02 23:46:00,
2013-06-02 19:51:00,59.7,47.5,29.93,North,349,6.3,6.3,64,0.00,,---,0.00,VWS V14.01,2013-06-02 23:51:00,
2013-06-02 19:57:00,59.5,47.4,29.93,WSW,257,5.4,8.1,64,0.00,,---,0.00,VWS V14.01,2013-06-02 23:57:00,
2013-06-02 20:02:00,59.5,47.4,29.93,NW,311,10.7,10.7,64,0.00,,---,0.00,VWS V14.01,2013-06-03 00:02:00,
2013-06-02 20:07:00,59.5,47.8,29.93,NW,308,8.1,19.2,65,0.00,,---,0.00,VWS V14.01,2013-06-03 00:07:00,
2013-06-02 20:12:00,59.4,47.2,29.93,NNE,18,15.2,15.2,64,0.00,,---,0.00,VWS V14.01,2013-06-03 00:12:00,
2013-06-02 20:17:00,59.0,46.8,29.93,NW,310,8.9,10.7,64,0.00,,---,0.00,VWS V14.01,2013-06-03 00:17:00,
2013-06-02 20:22:00,58.8,47.1,29.93,North,352,7.2,8.1,65,0.00,,---,0.00,VWS V14.01,2013-06-03 00:22:00,
2013-06-02 20:27:00,58.5,46.8,29.93,North,9,8.1,20.1,65,0.00,,---,0.00,VWS V14.01,2013-06-03 00:27:00,
2013-06-02 20:32:00,58.1,46.0,29.93,WNW,301,6.3,15.2,64,0.00,,---,0.00,VWS V14.01,2013-06-03 00:32:00,
2013-06-02 20:37:00,57.9,46.2,29.93,WNW,282,9.8,16.1,65,0.00,,---,0.00,VWS V14.01,2013-06-03 00:37:00,
2013-06-02 20:42:00,57.6,45.9,29.93,NNW,348,17.4,17.4,65,0.00,,---,0.00,VWS V14.01,2013-06-03 00:42:00,
2013-06-02 20:47:00,57.4,45.7,29.93,NNW,329,10.7,15.2,65,0.00,,---,0.00,VWS V14.01,2013-06-03 00:47:00,
2013-06-02 20:53:00,57.2,45.6,29.93,North,6,6.3,7.2,65,0.00,,---,0.00,VWS V14.01,2013-06-03 00:53:00,
2013-06-02 20:58:00,57.2,46.0,29.93,WNW,301,11.6,16.1,66,0.00,,---,0.00,VWS V14.01,2013-06-03 00:58:00,
2013-06-02 21:03:00,57.0,45.8,29.93,WNW,302,8.1,20.1,66,0.00,,---,0.00,VWS V14.01,2013-06-03 01:03:00,
2013-06-02 21:08:00,56.8,45.6,29.93,NNW,328,12.5,12.5,66,0.00,,---,0.00,VWS V14.01,2013-06-03 01:08:00,
2013-06-02 21:13:00,56.8,45.6,29.93,West,262,8.1,16.1,66,0.00,,---,0.00,VWS V14.01,2013-06-03 01:13:00,
2013-06-02 21:18:00,56.7,45.4,29.93,NNW,337,12.5,12.5,66,0.00,,---,0.00,VWS V14.01,2013-06-03 01:18:00,
2013-06-02 21:23:00,56.7,45.4,29.93,NNW,337,11.6,11.6,66,0.00,,---,0.00,VWS V14.01,2013-06-03 01:23:00,
2013-06-02 21:28:00,56.5,45.3,29.93,NW,325,7.2,10.7,66,0.00,,---,0.00,VWS V14.01,2013-06-03 01:28:00,
2013-06-02 21:33:00,56.5,44.9,29.93,North,1,7.2,16.1,65,0.00,,---,0.00,VWS V14.01,2013-06-03 01:33:00,
2013-06-02 21:38:00,56.3,44.7,29.96,NW,315,0.0,7.2,65,0.00,,---,0.00,VWS V14.01,2013-06-03 01:38:00,
2013-06-02 21:43:00,56.3,44.3,29.96,North,353,21.0,21.0,64,0.00,,---,0.00,VWS V14.01,2013-06-03 01:43:00,
2013-06-02 21:48:00,56.1,44.1,29.96,NNW,334,16.1,20.1,64,0.00,,---,0.00,VWS V14.01,2013-06-03 01:48:00,
2013-06-02 21:53:00,55.9,44.0,29.96,NW,312,5.4,9.8,64,0.00,,---,0.00,VWS V14.01,2013-06-03 01:53:00,
2013-06-02 21:58:00,55.9,43.5,29.96,ENE,61,5.4,10.7,63,0.00,,---,0.00,VWS V14.01,2013-06-03 01:58:00,
2013-06-02 22:04:00,55.8,43.4,29.96,NNW,334,11.6,16.6,63,0.00,,---,0.00,VWS V14.01,2013-06-03 02:04:00,
2013-06-02 22:09:00,55.6,43.2,29.96,NW,323,10.7,15.2,63,0.00,,---,0.00,VWS V14.01,2013-06-03 02:09:00,
2013-06-02 22:14:00,55.6,43.2,29.96,West,267,0.0,7.2,63,0.00,,---,0.00,VWS V14.01,2013-06-03 02:14:00,
2013-06-02 22:19:00,55.4,43.0,29.96,WNW,303,0.0,4.5,63,0.00,,---,0.00,VWS V14.01,2013-06-03 02:19:00,
2013-06-02 22:24:00,55.2,42.9,29.96,NW,322,8.1,11.6,63,0.00,,---,0.00,VWS V14.01,2013-06-03 02:24:00,
2013-06-02 22:29:00,55.0,42.7,29.96,WNW,296,0.0,17.4,63,0.00,,---,0.00,VWS V14.01,2013-06-03 02:29:00,
2013-06-02 22:34:00,54.9,42.1,29.96,NNW,334,20.1,20.1,62,0.00,,---,0.00,VWS V14.01,2013-06-03 02:34:00,
2013-06-02 22:39:00,54.9,42.1,29.96,WNW,303,9.8,17.4,62,0.00,,---,0.00,VWS V14.01,2013-06-03 02:39:00,
2013-06-02 22:44:00,54.5,41.3,29.96,NW,325,8.1,10.7,61,0.00,,---,0.00,VWS V14.01,2013-06-03 02:44:00,
2013-06-02 22:49:00,54.5,41.3,29.96,WNW,297,16.1,16.1,61,0.00,,---,0.00,VWS V14.01,2013-06-03 02:49:00,
2013-06-02 22:54:00,54.3,41.2,29.99,WNW,297,5.4,11.6,61,0.00,,---,0.00,VWS V14.01,2013-06-03 02:54:00,
2013-06-02 22:59:00,54.1,41.0,29.99,NNW,343,0.0,6.3,61,0.00,,---,0.00,VWS V14.01,2013-06-03 02:59:00,
2013-06-02 23:04:00,54.1,41.4,29.99,WNW,299,14.3,14.3,62,0.00,,---,0.00,VWS V14.01,2013-06-03 03:04:00,
2013-06-02 23:09:00,54.0,40.8,29.99,NW,310,4.5,8.9,61,0.00,,---,0.00,VWS V14.01,2013-06-03 03:09:00,
2013-06-02 23:14:00,54.0,40.8,29.99,NW,309,11.6,19.2,61,0.00,,---,0.00,VWS V14.01,2013-06-03 03:14:00,
2013-06-02 23:19:00,53.8,40.7,29.99,NW,325,5.4,10.7,61,0.00,,---,0.00,VWS V14.01,2013-06-03 03:19:00,
2013-06-02 23:24:00,53.6,40.5,29.99,NW,317,6.3,10.7,61,0.00,,---,0.00,VWS V14.01,2013-06-03 03:24:00,
2013-06-02 23:30:00,53.6,40.5,29.99,NW,321,5.4,11.6,61,0.00,,---,0.00,VWS V14.01,2013-06-03 03:30:00,
2013-06-02 23:35:00,53.6,40.5,29.99,NNE,14,0.0,7.2,61,0.00,,---,0.00,VWS V14.01,2013-06-03 03:35:00,
2013-06-02 23:40:00,53.4,40.3,29.99,North,11,0.0,16.1,61,0.00,,---,0.00,VWS V14.01,2013-06-03 03:40:00,
2013-06-02 23:45:00,53.4,40.3,29.99,NNW,342,0.0,0.0,61,0.00,,---,0.00,VWS V14.01,2013-06-03 03:45:00,
2013-06-02 23:50:00,53.2,40.2,29.99,WNW,293,11.6,11.6,61,0.00,,---,0.00,VWS V14.01,2013-06-03 03:50:00,
2013-06-02 23:55:00,53.2,40.2,29.99,WNW,294,4.5,6.3,61,0.00,,---,0.00,VWS V14.01,2013-06-03 03:55:00,